createdAt,value
2022-12-27T00:01:33.783Z,100100.28
2022-12-27T00:04:01.431Z,100102.97
2022-12-27T00:06:29.865Z,100091.41
2022-12-27T00:08:58.198Z,100088.94
2022-12-27T00:11:28.832Z,100099.44
2022-12-27T00:13:56.457Z,100121.97
2022-12-27T00:16:24.645Z,100136.00
2022-12-27T00:18:52.216Z,100137.22
2022-12-27T00:21:21.676Z,100139.50
2022-12-27T00:23:50.863Z,100146.63
2022-12-27T00:26:20.976Z,100145.34
2022-12-27T00:28:54.679Z,100153.63
2022-12-27T00:31:24.223Z,100160.13
2022-12-27T00:33:53.737Z,100162.63
2022-12-27T00:36:23.680Z,100176.44
2022-12-27T00:38:52.305Z,100173.88
2022-12-27T00:41:20.495Z,100168.53
2022-12-27T00:43:48.658Z,100169.47
2022-12-27T00:46:18.909Z,100170.81
2022-12-27T00:48:46.968Z,100179.88
2022-12-27T00:51:17.689Z,100193.44
2022-12-27T00:53:45.915Z,100198.50
2022-12-27T00:56:16.416Z,100200.19
2022-12-27T00:58:44.208Z,100207.38
2022-12-27T01:01:14.915Z,100220.50
2022-12-27T01:03:44.377Z,100216.13
2022-12-27T01:06:14.663Z,100212.59
2022-12-27T01:08:42.733Z,100226.81
2022-12-27T01:11:12.119Z,100226.09
2022-12-27T01:13:40.568Z,100238.47
2022-12-27T01:16:13.290Z,100239.56
2022-12-27T01:18:40.943Z,100235.06
2022-12-27T01:21:12.227Z,100235.44
2022-12-27T01:23:40.773Z,100243.59
2022-12-27T01:26:12.254Z,100240.34
2022-12-27T01:28:39.865Z,100251.28
2022-12-27T01:31:09.963Z,100248.03
2022-12-27T01:33:37.816Z,100256.22
2022-12-27T01:36:12.406Z,100263.09
2022-12-27T01:38:40.336Z,100268.75
2022-12-27T01:41:12.729Z,100271.38
2022-12-27T01:43:40.347Z,100271.53
2022-12-27T01:46:08.522Z,100275.03
2022-12-27T01:48:36.179Z,100271.19
2022-12-27T01:51:07.097Z,100270.25
2022-12-27T01:53:39.658Z,100286.28
2022-12-27T01:56:11.651Z,100296.25
2022-12-27T01:58:44.998Z,100300.06
2022-12-27T02:01:21.339Z,100297.00
2022-12-27T02:03:52.269Z,100301.38
2022-12-27T02:06:22.201Z,100312.78
2022-12-27T02:08:56.903Z,100317.97
2022-12-27T02:11:28.845Z,100310.25
2022-12-27T02:13:57.217Z,100322.06
2022-12-27T02:16:25.740Z,100322.47
2022-12-27T02:18:53.370Z,100328.78
2022-12-27T02:21:50.440Z,100321.63
2022-12-27T02:24:40.985Z,100338.88
2022-12-27T02:27:27.149Z,100335.22
2022-12-27T02:29:59.873Z,100342.38
2022-12-27T02:32:32.747Z,100350.22
2022-12-27T02:35:08.566Z,100362.00
2022-12-27T02:37:41.735Z,100365.09
2022-12-27T02:40:12.009Z,100370.00
2022-12-27T02:42:40.098Z,100369.88
2022-12-27T02:45:29.972Z,100362.25
2022-12-27T02:47:58.508Z,100350.91
2022-12-27T02:50:34.164Z,100360.22
2022-12-27T02:53:07.884Z,100379.59
2022-12-27T02:55:51.801Z,100390.50
2022-12-27T02:58:31.970Z,100390.63
2022-12-27T03:01:09.633Z,100402.16
2022-12-27T03:03:55.128Z,100397.19
2022-12-27T03:06:42.500Z,100416.19
2022-12-27T03:09:35.396Z,100418.03
2022-12-27T03:12:09.454Z,100415.66
2022-12-27T03:14:40.509Z,100423.88
2022-12-27T03:17:14.411Z,100423.84
2022-12-27T03:19:47.842Z,100432.78
2022-12-27T03:22:16.599Z,100433.06
2022-12-27T03:24:44.841Z,100434.91
2022-12-27T03:27:17.617Z,100450.47
2022-12-27T03:29:53.722Z,100455.50
2022-12-27T03:32:24.203Z,100465.00
2022-12-27T03:34:55.883Z,100463.72
2022-12-27T03:37:29.150Z,100469.75
2022-12-27T03:40:06.205Z,100477.66
2022-12-27T03:42:40.111Z,100475.41
2022-12-27T03:45:09.131Z,100484.16
2022-12-27T03:47:47.778Z,100482.59
2022-12-27T03:50:23.628Z,100488.78
2022-12-27T03:52:58.111Z,100495.78
2022-12-27T03:55:33.030Z,100498.38
2022-12-27T03:58:01.096Z,100509.69
2022-12-27T04:00:29.115Z,100511.41
2022-12-27T04:02:58.370Z,100511.63
2022-12-27T04:05:26.596Z,100521.22
2022-12-27T04:07:54.058Z,100510.44
2022-12-27T04:10:22.131Z,100510.91
2022-12-27T04:12:49.540Z,100515.66
2022-12-27T04:15:17.873Z,100510.72
2022-12-27T04:17:45.924Z,100519.91
2022-12-27T04:20:15.629Z,100531.66
2022-12-27T04:22:43.232Z,100537.81
2022-12-27T04:25:11.742Z,100536.34
2022-12-27T04:27:39.325Z,100537.56
2022-12-27T04:30:08.442Z,100544.38
2022-12-27T04:32:36.124Z,100548.84
2022-12-27T04:35:05.315Z,100553.91
2022-12-27T04:37:34.398Z,100558.28
2022-12-27T04:40:02.381Z,100555.63
2022-12-27T04:42:30.035Z,100563.47
2022-12-27T04:44:58.030Z,100563.97
2022-12-27T04:47:26.369Z,100576.44
2022-12-27T04:49:54.234Z,100584.28
2022-12-27T04:52:23.701Z,100584.53
2022-12-27T04:54:53.050Z,100585.97
2022-12-27T04:57:20.824Z,100587.78
2022-12-27T04:59:48.793Z,100582.94
2022-12-27T05:02:18.529Z,100597.09
2022-12-27T05:04:48.249Z,100593.34
2022-12-27T05:07:16.858Z,100596.84
2022-12-27T05:09:44.851Z,100603.97
2022-12-27T05:12:14.156Z,100609.91
2022-12-27T05:14:42.187Z,100607.25
2022-12-27T05:17:09.947Z,100616.19
2022-12-27T05:19:37.902Z,100615.56
2022-12-27T05:22:05.539Z,100620.53
2022-12-27T05:24:33.703Z,100615.78
2022-12-27T05:27:01.292Z,100630.44
2022-12-27T05:29:31.177Z,100630.31
2022-12-27T05:31:59.095Z,100629.13
2022-12-27T05:34:27.303Z,100635.41
2022-12-27T05:36:55.085Z,100631.28
2022-12-27T05:39:23.590Z,100633.72
2022-12-27T05:41:51.069Z,100638.91
2022-12-27T05:44:19.370Z,100647.28
2022-12-27T05:46:48.843Z,100644.34
2022-12-27T05:49:16.901Z,100641.81
2022-12-27T05:51:44.494Z,100645.34
2022-12-27T05:54:12.567Z,100647.84
2022-12-27T05:56:40.051Z,100654.38
2022-12-27T05:59:08.229Z,100659.81
2022-12-27T06:01:35.898Z,100675.78
2022-12-27T06:04:06.168Z,100675.91
2022-12-27T06:06:37.372Z,100674.94
2022-12-27T06:09:05.725Z,100681.09
2022-12-27T06:11:33.509Z,100687.53
2022-12-27T06:14:01.554Z,100684.38
2022-12-27T06:16:29.272Z,100689.53
2022-12-27T06:18:57.967Z,100682.72
2022-12-27T06:21:27.385Z,100684.94
2022-12-27T06:23:57.809Z,100689.59
2022-12-27T06:26:27.757Z,100687.06
2022-12-27T06:28:57.645Z,100696.72
2022-12-27T06:31:26.825Z,100699.16
2022-12-27T06:33:55.475Z,100702.91
2022-12-27T06:36:25.487Z,100709.84
2022-12-27T06:38:55.313Z,100698.72
2022-12-27T06:41:23.079Z,100720.34
2022-12-27T06:43:55.715Z,100716.81
2022-12-27T06:46:23.884Z,100718.22
2022-12-27T06:48:52.594Z,100718.56
2022-12-27T06:51:22.149Z,100724.28
2022-12-27T06:53:50.610Z,100735.25
2022-12-27T06:56:21.588Z,100722.09
2022-12-27T06:58:51.165Z,100728.34
2022-12-27T07:01:20.831Z,100732.47
2022-12-27T07:03:50.623Z,100747.13
2022-12-27T07:06:18.690Z,100740.84
2022-12-27T07:08:47.120Z,100740.00
2022-12-27T07:11:15.764Z,100752.31
2022-12-27T07:13:47.339Z,100758.84
2022-12-27T07:16:17.718Z,100764.84
2022-12-27T07:18:49.696Z,100768.63
2022-12-27T07:21:19.173Z,100765.91
2022-12-27T07:23:47.904Z,100776.00
2022-12-27T07:26:17.808Z,100772.91
2022-12-27T07:28:47.984Z,100778.53
2022-12-27T07:31:17.363Z,100783.66
2022-12-27T07:33:46.213Z,100779.22
2022-12-27T07:36:16.534Z,100785.94
2022-12-27T07:38:46.368Z,100780.66
2022-12-27T07:41:14.766Z,100777.91
2022-12-27T07:43:43.016Z,100784.19
2022-12-27T07:46:14.051Z,100791.97
2022-12-27T07:48:43.448Z,100779.28
2022-12-27T07:51:14.919Z,100786.44
2022-12-27T07:53:43.349Z,100778.94
2022-12-27T07:56:14.106Z,100791.41
2022-12-27T07:58:45.722Z,100788.75
2022-12-27T08:01:16.285Z,100797.34
2022-12-27T08:03:44.764Z,100801.47
2022-12-27T08:06:21.639Z,100800.38
2022-12-27T08:08:51.399Z,100807.28
2022-12-27T08:11:19.357Z,100814.19
2022-12-27T08:13:47.696Z,100807.91
2022-12-27T08:16:21.404Z,100817.34
2022-12-27T08:18:49.606Z,100821.19
2022-12-27T08:21:17.369Z,100823.88
2022-12-27T08:23:46.124Z,100824.63
2022-12-27T08:26:14.052Z,100827.59
2022-12-27T08:28:42.611Z,100827.50
2022-12-27T08:31:12.893Z,100827.19
2022-12-27T08:33:42.539Z,100831.69
2022-12-27T08:39:01.405Z,100824.69
2022-12-27T08:41:29.318Z,100832.91
2022-12-27T08:43:56.605Z,100840.63
2022-12-27T08:46:25.071Z,100841.38
2022-12-27T08:48:54.090Z,100835.09
2022-12-27T08:51:32.814Z,100843.41
2022-12-27T08:54:06.596Z,100842.53
2022-12-27T08:56:34.899Z,100843.31
2022-12-27T08:59:03.656Z,100837.22
2022-12-27T09:01:31.986Z,100837.94
2022-12-27T09:04:01.250Z,100838.13
2022-12-27T09:06:29.358Z,100848.19
2022-12-27T09:08:57.521Z,100846.47
2022-12-27T09:11:27.988Z,100853.19
2022-12-27T09:13:57.853Z,100859.66
2022-12-27T09:16:26.940Z,100865.53
2022-12-27T09:18:57.011Z,100870.47
2022-12-27T09:21:28.574Z,100859.56
2022-12-27T09:23:56.657Z,100864.59
2022-12-27T09:26:26.899Z,100867.94
2022-12-27T09:28:55.153Z,100872.75
2022-12-27T09:31:24.276Z,100867.59
2022-12-27T09:33:52.931Z,100867.25
2022-12-27T09:36:23.325Z,100868.50
2022-12-27T09:38:54.527Z,100864.72
2022-12-27T09:42:33.874Z,100865.38
2022-12-27T09:44:23.228Z,100868.19
2022-12-27T09:46:57.134Z,100884.75
2022-12-27T09:49:37.236Z,100868.44
2022-12-27T09:52:11.829Z,100883.25
2022-12-27T09:54:52.949Z,100882.16
2022-12-27T09:57:26.786Z,100879.84
2022-12-27T09:59:58.790Z,100885.91
2022-12-27T10:02:27.559Z,100880.63
2022-12-27T10:05:19.821Z,100879.88
2022-12-27T10:08:00.973Z,100880.91
2022-12-27T10:10:42.514Z,100874.53
2022-12-27T10:13:29.525Z,100868.34
2022-12-27T10:16:10.046Z,100870.00
2022-12-27T10:18:49.559Z,100867.97
2022-12-27T10:21:21.754Z,100860.25
2022-12-27T10:23:55.762Z,100864.50
2022-12-27T10:26:25.131Z,100858.75
2022-12-27T10:28:57.832Z,100874.13
2022-12-27T10:31:25.745Z,100866.84
2022-12-27T10:33:54.382Z,100861.69
2022-12-27T10:36:26.198Z,100866.66
2022-12-27T10:38:54.530Z,100875.19
2022-12-27T10:41:36.688Z,100883.97
2022-12-27T10:44:10.542Z,100876.38
2022-12-27T10:46:39.242Z,100879.94
2022-12-27T10:49:21.085Z,100891.59
2022-12-27T10:51:51.564Z,100886.13
2022-12-27T10:54:23.645Z,100880.88
2022-12-27T10:56:54.429Z,100878.03
2022-12-27T10:59:24.694Z,100877.78
2022-12-27T11:02:16.331Z,100885.81
2022-12-27T11:04:58.616Z,100893.28
2022-12-27T11:07:30.367Z,100882.78
2022-12-27T11:30:17.147Z,100878.63
2022-12-27T11:32:47.059Z,100872.56
2022-12-27T11:35:17.725Z,100870.44
2022-12-27T11:37:46.915Z,100879.06
2022-12-27T11:40:24.765Z,100884.94
2022-12-27T11:43:00.305Z,100866.00
2022-12-27T11:45:35.566Z,100878.03
2022-12-27T11:48:14.532Z,100870.28
2022-12-27T11:50:53.959Z,100878.72
2022-12-27T11:53:39.067Z,100883.16
2022-12-27T11:56:17.994Z,100871.88
2022-12-27T11:59:11.639Z,100875.81
2022-12-27T12:02:21.330Z,100872.47
2022-12-27T12:04:56.895Z,100873.81
2022-12-27T12:07:44.510Z,100885.31
2022-12-27T12:10:29.744Z,100882.00
2022-12-27T12:13:20.042Z,100886.88
2022-12-27T12:16:11.585Z,100892.16
2022-12-27T12:18:50.143Z,100898.28
2022-12-27T12:21:25.211Z,100884.09
2022-12-27T12:24:36.610Z,100889.25
2022-12-27T12:27:27.240Z,100883.19
2022-12-27T12:30:11.551Z,100887.78
2022-12-27T12:32:56.785Z,100891.50
2022-12-27T12:35:48.914Z,100891.06
2022-12-27T12:38:24.484Z,100892.13
2022-12-27T12:41:21.637Z,100891.78
2022-12-27T12:44:17.502Z,100898.13
2022-12-27T12:46:54.095Z,100898.44
2022-12-27T12:50:00.919Z,100905.72
2022-12-27T12:52:54.119Z,100901.91
2022-12-27T12:55:39.868Z,100911.78
2022-12-27T12:58:17.981Z,100896.00
2022-12-27T13:01:01.718Z,100904.84
2022-12-27T13:03:58.320Z,100917.84
2022-12-27T13:06:49.656Z,100914.22
2022-12-27T13:09:28.511Z,100914.72
2022-12-27T13:12:05.087Z,100923.59
2022-12-27T13:14:52.966Z,100926.63
2022-12-27T13:17:29.361Z,100914.06
2022-12-27T13:20:18.575Z,100916.59
2022-12-27T13:23:05.777Z,100914.28
2022-12-27T13:25:42.838Z,100909.78
2022-12-27T13:28:28.202Z,100909.91
2022-12-27T13:31:02.785Z,100923.38
2022-12-27T13:33:44.925Z,100934.66
2022-12-27T13:36:24.287Z,100928.81
2022-12-27T13:39:14.222Z,100930.63
2022-12-27T13:41:53.956Z,100937.69
2022-12-27T13:44:32.927Z,100937.47
2022-12-27T13:47:20.572Z,100941.59
2022-12-27T13:50:03.341Z,100936.41
2022-12-27T13:52:57.545Z,100934.94
2022-12-27T13:55:52.287Z,100943.66
2022-12-27T13:58:59.379Z,100940.97
2022-12-27T14:01:52.874Z,100939.16
2022-12-27T14:04:44.143Z,100944.53
2022-12-27T14:07:31.833Z,100946.31
2022-12-27T14:10:26.218Z,100944.63
2022-12-27T14:12:57.481Z,100950.34
2022-12-27T14:15:36.072Z,100942.47
2022-12-27T14:18:24.198Z,100948.78
2022-12-27T14:21:07.336Z,100950.19
2022-12-27T14:23:53.230Z,100950.19
2022-12-27T14:27:04.822Z,100964.03
2022-12-27T14:30:02.543Z,100967.16
2022-12-27T14:33:02.432Z,100971.19
2022-12-27T14:36:11.968Z,100976.38
2022-12-27T14:39:19.728Z,100990.06
2022-12-27T14:42:27.166Z,100988.03
2022-12-27T14:45:35.044Z,100996.63
2022-12-27T14:48:38.163Z,101002.00
2022-12-27T14:51:59.997Z,101005.78
2022-12-27T14:55:23.554Z,101009.66
2022-12-27T14:58:07.262Z,101009.78
2022-12-27T15:01:02.852Z,101007.09
2022-12-27T15:03:50.171Z,101008.66
2022-12-27T15:06:31.760Z,101014.63
2022-12-27T15:09:12.127Z,101003.47
2022-12-27T15:11:58.851Z,101000.06
2022-12-27T15:14:54.950Z,100997.06
2022-12-27T15:17:39.977Z,100995.31
2022-12-27T15:20:24.942Z,101014.13
2022-12-27T15:23:04.860Z,101012.31
2022-12-27T15:25:47.500Z,101016.34
2022-12-27T15:28:25.642Z,101008.91
2022-12-27T15:31:01.499Z,101022.53
2022-12-27T15:33:38.215Z,101007.34
2022-12-27T15:36:13.728Z,101009.44
2022-12-27T15:38:52.639Z,101018.03
2022-12-27T15:41:35.690Z,101014.00
2022-12-27T15:44:31.491Z,101023.72
2022-12-27T15:47:27.338Z,101010.69
2022-12-27T15:50:28.659Z,101011.91
2022-12-27T15:53:37.598Z,101007.88
2022-12-27T15:56:52.722Z,101011.53
2022-12-27T15:59:44.726Z,101009.59
2022-12-27T16:02:28.007Z,101017.25
2022-12-27T16:05:01.565Z,101018.69
2022-12-27T16:07:47.589Z,101015.56
2022-12-27T16:10:46.833Z,101018.16
2022-12-27T16:13:39.469Z,101016.63
2022-12-27T16:16:27.286Z,101012.88
2022-12-27T16:19:19.192Z,101022.69
2022-12-27T16:21:47.416Z,101022.19
2022-12-27T16:24:19.717Z,101015.84
2022-12-27T16:26:53.253Z,101018.50
2022-12-27T16:29:27.743Z,101012.84
2022-12-27T16:32:18.420Z,101012.13
2022-12-27T16:34:50.264Z,101017.53
2022-12-27T16:37:26.612Z,101013.88
2022-12-27T16:40:28.082Z,101021.53
2022-12-27T16:43:32.144Z,101021.16
2022-12-27T16:46:16.271Z,101013.25
2022-12-27T16:49:03.210Z,101019.16
2022-12-27T16:51:39.721Z,101021.41
2022-12-27T16:54:22.773Z,101012.56
2022-12-27T16:56:51.366Z,101023.91
2022-12-27T16:59:53.043Z,101026.25
2022-12-27T17:02:40.827Z,101027.28
2022-12-27T17:05:36.521Z,101031.84
2022-12-27T17:08:16.120Z,101031.47
2022-12-27T17:11:00.219Z,101036.22
2022-12-27T17:13:38.926Z,101034.13
2022-12-27T17:16:13.548Z,101043.56
2022-12-27T17:18:47.390Z,101044.91
2022-12-27T17:21:29.805Z,101043.53
2022-12-27T17:24:01.679Z,101045.63
2022-12-27T17:26:58.351Z,101042.13
2022-12-27T17:29:46.310Z,101047.09
2022-12-27T17:32:27.027Z,101052.94
2022-12-27T17:35:04.718Z,101058.03
2022-12-27T17:37:41.230Z,101065.97
2022-12-27T17:40:24.377Z,101063.19
2022-12-27T17:43:03.740Z,101060.41
2022-12-27T17:45:41.669Z,101063.19
2022-12-27T17:48:20.231Z,101068.28
2022-12-27T17:50:48.155Z,101059.06
2022-12-27T17:53:19.667Z,101062.22
2022-12-27T17:56:08.539Z,101058.03
2022-12-27T17:58:41.289Z,101065.19
2022-12-27T18:01:09.755Z,101057.44
2022-12-27T18:03:42.291Z,101055.09
2022-12-27T18:06:11.452Z,101050.69
2022-12-27T18:08:40.881Z,101044.28
2022-12-27T18:11:09.184Z,101052.19
2022-12-27T18:13:44.668Z,101049.88
2022-12-27T18:16:17.436Z,101068.31
2022-12-27T18:18:48.706Z,101076.75
2022-12-27T18:21:25.320Z,101065.38
2022-12-27T18:23:55.848Z,101066.28
2022-12-27T18:26:34.692Z,101056.50
2022-12-27T18:29:02.762Z,101066.13
2022-12-27T18:31:35.854Z,101061.44
2022-12-27T18:34:05.664Z,101064.00
2022-12-27T18:36:40.147Z,101068.03
2022-12-27T18:39:24.475Z,101066.44
2022-12-27T18:41:54.187Z,101070.88
2022-12-27T18:44:27.407Z,101071.97
2022-12-27T18:46:58.450Z,101066.50
2022-12-27T18:49:28.304Z,101078.56
2022-12-27T18:51:56.863Z,101083.53
2022-12-27T18:54:35.539Z,101083.13
2022-12-27T18:57:04.540Z,101084.81
2022-12-27T18:59:33.251Z,101085.13
2022-12-27T19:02:03.835Z,101087.03
2022-12-27T19:04:32.729Z,101085.56
2022-12-27T19:07:09.470Z,101095.97
2022-12-27T19:09:41.326Z,101084.38
2022-12-27T19:12:21.829Z,101074.66
2022-12-27T19:14:49.991Z,101075.28
2022-12-27T19:17:21.866Z,101079.38
2022-12-27T19:19:53.084Z,101083.50
2022-12-27T19:22:36.025Z,101075.50
2022-12-27T19:25:07.528Z,101082.03
2022-12-27T19:27:36.050Z,101083.38
2022-12-27T19:30:04.675Z,101085.31
2022-12-27T19:32:35.447Z,101088.31
2022-12-27T19:35:04.660Z,101091.72
2022-12-27T19:37:33.742Z,101100.13
2022-12-27T19:40:01.480Z,101093.16
2022-12-27T19:42:32.937Z,101105.53
2022-12-27T19:45:00.853Z,101101.41
2022-12-27T19:47:29.033Z,101103.28
2022-12-27T19:49:57.348Z,101107.34
2022-12-27T19:52:26.938Z,101106.41
2022-12-27T19:55:01.747Z,101105.16
2022-12-27T19:57:32.828Z,101107.50
2022-12-27T20:00:04.095Z,101105.19
2022-12-27T20:02:35.553Z,101099.88
2022-12-27T20:05:03.344Z,101098.13
2022-12-27T20:07:31.566Z,101097.00
2022-12-27T20:09:59.523Z,101097.72
2022-12-27T20:12:27.899Z,101096.22
2022-12-27T20:14:57.328Z,101097.28
2022-12-27T20:17:25.836Z,101099.75
2022-12-27T20:19:53.509Z,101097.84
2022-12-27T20:22:22.444Z,101095.06
2022-12-27T20:24:50.372Z,101099.81
2022-12-27T20:27:18.677Z,101104.50
2022-12-27T20:29:46.768Z,101105.34
2022-12-27T20:32:16.583Z,101099.41
2022-12-27T20:34:44.447Z,101104.50
2022-12-27T20:37:12.764Z,101101.50
2022-12-27T20:39:40.549Z,101105.91
2022-12-27T20:42:09.477Z,101099.00
2022-12-27T20:44:37.699Z,101109.72
2022-12-27T20:47:06.151Z,101112.38
2022-12-27T20:49:35.555Z,101108.34
2022-12-27T20:52:04.147Z,101112.78
2022-12-27T20:54:31.922Z,101111.00
2022-12-27T20:57:00.301Z,101109.53
2022-12-27T20:59:28.194Z,101101.31
2022-12-27T21:01:57.366Z,101104.41
2022-12-27T21:04:26.395Z,101100.69
2022-12-27T21:06:56.533Z,101102.88
2022-12-27T21:09:24.704Z,101097.56
2022-12-27T21:11:53.418Z,101097.16
2022-12-27T21:14:21.245Z,101096.97
2022-12-27T21:16:50.060Z,101095.31
2022-12-27T21:19:18.146Z,101088.41
2022-12-27T21:21:47.342Z,101092.88
2022-12-27T21:24:16.729Z,101094.63
2022-12-27T21:26:45.858Z,101090.16
2022-12-27T21:29:15.838Z,101085.28
2022-12-27T21:31:44.177Z,101088.03
2022-12-27T21:34:12.320Z,101095.00
2022-12-27T21:36:40.309Z,101091.22
2022-12-27T21:39:08.761Z,101089.19
2022-12-27T21:41:40.105Z,101090.78
2022-12-27T21:44:07.874Z,101089.72
2022-12-27T21:46:38.664Z,101089.25
2022-12-27T21:49:08.515Z,101092.69
2022-12-27T21:51:37.571Z,101086.50
2022-12-27T21:54:05.769Z,101092.06
2022-12-27T21:56:34.303Z,101087.25
2022-12-27T21:59:04.560Z,101085.88
2022-12-27T22:01:52.023Z,101089.88
2022-12-27T22:04:20.869Z,101087.16
2022-12-27T22:06:49.484Z,101090.59
2022-12-27T22:09:17.408Z,101086.00
2022-12-27T22:11:45.487Z,101081.19
2022-12-27T22:14:14.909Z,101086.84
2022-12-27T22:16:43.081Z,101087.31
2022-12-27T22:19:12.525Z,101091.75
2022-12-27T22:21:43.095Z,101086.03
2022-12-27T22:24:13.009Z,101080.88
2022-12-27T22:26:40.998Z,101085.41
2022-12-27T22:29:08.600Z,101079.97
2022-12-27T22:31:38.582Z,101087.13
2022-12-27T22:34:06.638Z,101077.53
2022-12-27T22:36:34.880Z,101081.22
2022-12-27T22:39:03.228Z,101079.50
2022-12-27T22:41:34.225Z,101078.13
2022-12-27T22:44:03.785Z,101080.69
2022-12-27T22:46:58.649Z,101074.25
2022-12-27T22:49:21.425Z,101068.44
2022-12-27T22:51:49.649Z,101067.66
2022-12-27T22:54:17.918Z,101070.31
2022-12-27T22:56:46.263Z,101068.47
2022-12-27T22:59:16.566Z,101078.06
2022-12-27T23:01:45.521Z,101068.72
2022-12-27T23:04:14.678Z,101061.88
2022-12-27T23:06:47.062Z,101058.31
2022-12-27T23:09:14.955Z,101058.22
2022-12-27T23:11:43.003Z,101053.84
2022-12-27T23:14:13.419Z,101057.38
2022-12-27T23:16:44.063Z,101052.66
2022-12-27T23:19:15.317Z,101049.56
2022-12-27T23:21:45.873Z,101051.81
2022-12-27T23:24:14.311Z,101045.66
2022-12-27T23:26:43.081Z,101046.63
2022-12-27T23:29:11.914Z,101038.19
2022-12-27T23:31:54.380Z,101033.47
2022-12-27T23:34:27.585Z,101039.41
2022-12-27T23:36:59.437Z,101033.75
2022-12-27T23:39:27.424Z,101033.63
2022-12-27T23:41:55.652Z,101037.13
2022-12-27T23:44:34.411Z,101033.19
2022-12-27T23:47:04.587Z,101034.22
2022-12-27T23:49:32.307Z,101027.09
2022-12-27T23:52:02.091Z,101029.69
2022-12-27T23:54:32.476Z,101026.53
2022-12-27T23:57:22.310Z,101023.97
2022-12-27T23:59:48.442Z,101022.75
